Historique des stations

Station météo de Le Mesnil-Thomas

Altitude de la station : 196 m







Données météorologiques pour le 16/09/2021
Date
Heure
Températures Humidité Point de rosée Vitesse
du vent
Direction Rafales Windchill Pression Pluviométrie
Cumul
Date
Heure
Températures Humidité Point de rosée Vitesse
du vent
Direction Rafales Windchill Pression Pluviométrie
Cumul
16/09/2021 12:5619.2 °C74 %14.4 °C3 km/hN14 km/h19.4 1020 hPa-
16/09/2021 12:4018.8 °C77 %14.4 °C6 km/hN14 km/h18.9 1021 hPa-
16/09/2021 12:2618.3 °C79 %14.4 °C2 km/hN11 km/h18.3 1021 hPa-
16/09/2021 12:1018.4 °C79 %15.0 °C5 km/hNNE11 km/h18.3 1021 hPa-
16/09/2021 11:5417.8 °C83 %15.0 °C11 km/hN11 km/h17.8 1021 hPa-
16/09/2021 11:3917.3 °C85 %15.0 °C3 km/hN11 km/h17.2 1021 hPa-
16/09/2021 11:2417.2 °C89 %15.6 °C3 km/hNNO11 km/h17.2 1021 hPa-
16/09/2021 11:0816.6 °C93 %15.6 °C-N11 km/h16.7 1021 hPa-
16/09/2021 10:5315.8 °C93 %14.4 °C2 km/hN10 km/h16.1 1021 hPa-
16/09/2021 10:3815.2 °C93 %13.9 °C-N10 km/h15.0 1020 hPa-
16/09/2021 10:2214.7 °C93 %13.3 °C-N10 km/h14.4 1020 hPa-
16/09/2021 10:0714.3 °C93 %13.3 °C3 km/hN10 km/h14.4 1020 hPa-
16/09/2021 09:5213.9 °C93 %12.8 °C3 km/hNNO8 km/h13.9 1020 hPa-
16/09/2021 09:3613.7 °C94 %12.8 °C2 km/hN8 km/h13.9 1020 hPa-
16/09/2021 09:2013.4 °C93 %12.2 °C-NNO8 km/h13.3 1020 hPa-
16/09/2021 09:0613.2 °C93 %12.2 °C-NNO8 km/h13.3 1020 hPa-
16/09/2021 08:5013.1 °C93 %12.2 °C-NNO8 km/h13.3 1020 hPa-
16/09/2021 08:3512.8 °C93 %11.7 °C-NNO8 km/h12.8 1020 hPa-
16/09/2021 08:1912.7 °C93 %11.7 °C-NNO8 km/h12.8 1020 hPa-
16/09/2021 08:0412.3 °C93 %11.1 °C-NO8 km/h12.2 1020 hPa-
16/09/2021 07:4811.9 °C93 %10.6 °C-ONO8 km/h11.7 1019 hPa-
16/09/2021 07:3311.8 °C93 %10.6 °C-NO8 km/h11.7 1019 hPa-
16/09/2021 07:1711.8 °C93 %10.6 °C-NO8 km/h11.7 1019 hPa-
16/09/2021 07:0211.7 °C93 %10.6 °C2 km/hNO8 km/h11.7 1019 hPa-
16/09/2021 06:5211.7 °C93 %10.6 °C-NO8 km/h11.7 1019 hPa-
16/09/2021 06:3711.7 °C93 %10.6 °C3 km/hNO8 km/h11.7 1019 hPa-
16/09/2021 06:3211.7 °C93 %10.6 °C2 km/hNO8 km/h11.7 1019 hPa-
16/09/2021 06:1711.6 °C93 %10.6 °C2 km/hONO8 km/h11.7 1019 hPa-
16/09/2021 06:0211.9 °C93 %10.6 °C-ONO8 km/h11.7 1019 hPa-
16/09/2021 05:4612.1 °C93 %11.1 °C3 km/hONO8 km/h12.2 1019 hPa-
16/09/2021 05:3212.1 °C93 %11.1 °C2 km/hONO8 km/h12.2 1019 hPa-
16/09/2021 05:1612.1 °C93 %11.1 °C2 km/hONO8 km/h12.2 1019 hPa-
16/09/2021 05:0112.3 °C93 %11.1 °C2 km/hONO8 km/h12.2 1019 hPa-
16/09/2021 04:4512.6 °C93 %11.7 °C3 km/hONO8 km/h12.8 1019 hPa-
16/09/2021 04:3012.8 °C93 %11.7 °C3 km/hONO8 km/h12.8 1019 hPa-
16/09/2021 04:1412.8 °C93 %11.7 °C3 km/hONO8 km/h12.8 1019 hPa-
16/09/2021 03:5913.1 °C93 %12.2 °C2 km/hONO8 km/h13.3 1019 hPa-
16/09/2021 03:4313.3 °C93 %12.2 °C3 km/hNO8 km/h13.3 1019 hPa-
16/09/2021 03:2813.5 °C93 %12.2 °C6 km/hONO8 km/h13.3 1019 hPa-
16/09/2021 03:13-92 %-----1019 hPa-
16/09/2021 02:5614.1 °C92 %12.8 °C6 km/hNO6 km/h13.9 1019 hPa-
16/09/2021 02:4314.2 °C92 %12.8 °C3 km/hNO5 km/h14.4 1019 hPa-
16/09/2021 02:2314.7 °C91 %13.3 °C-NNO5 km/h15.0 1019 hPa-
16/09/2021 02:1215.0 °C90 %13.3 °C2 km/hNNO5 km/h15.0 1019 hPa-
16/09/2021 01:5615.6 °C90 %13.9 °C-NNO5 km/h15.6 1019 hPa-
16/09/2021 01:4115.8 °C90 %14.4 °C2 km/hNNO21 km/h16.1 1019 hPa0.8 mm
16/09/2021 01:2516.1 °C89 %14.4 °C2 km/hN21 km/h16.1 1018 hPa0.8 mm
16/09/2021 01:0916.1 °C89 %14.4 °C3 km/hNNO21 km/h16.1 1018 hPa0.8 mm
16/09/2021 00:5516.2 °C89 %14.4 °C2 km/hN21 km/h16.1 1018 hPa0.8 mm
16/09/2021 00:3916.2 °C89 %14.4 °C2 km/hN21 km/h16.1 1018 hPa0.8 mm
16/09/2021 00:2316.3 °C88 %14.4 °C2 km/hNNO21 km/h16.1 1018 hPa0.8 mm
16/09/2021 00:0816.3 °C88 %14.4 °C3 km/hNNO21 km/h16.1 1018 hPa0.8 mm


Minima :

Température : 11.6 °C
Humidité : 74 %
Point de rosée : 10.6 °C
Vent moyen : 2 km/h
Windchill : 11.7
Pression atm. : 1018 hPa
Maxima :

Température : 19.2 °C
Humidité : 94 %
Point de rosée : 15.6 °C
Vent moyen : 11 km/h
Windchill : 19.4
Pression atm. : 1021 hPa
Rafales max : 21 km/h
Cumul de pluie sur 24H : 0.8 mm

Le Mesnil-Thomas est une commune du département Eure-et-Loir (28).
La station météorologique du réseau de l'association la plus proche de Le Mesnil-Thomas est celle de Digny



Icône Facebook Association Météo Centre Icône Twitter Association Météo Centre Icône Chaîne Youtube Association Météo Centre Icône contact Association Météo Centre Icône Insta Association Météo Centre